Time;durP1;ratioP1;P1;durP2;ratioP2;P2;SDS_P1;SDS_P2;PMS_P1;PMS_P2;Temp;Humidity;BMP_temperature;BMP_pressure;BME280_temperature;BME280_humidity;BME280_pressure;Samples;Min_cycle;Max_cycle;Signal;HPM_P1;HPM_P2
2021/08/22 00:01:45;;;;;;;14.68;7.25;;;;;;;-139.48;100.00;61774.03;5092686;28;20185;-64
2021/08/22 00:04:29;;;;;;;10.00;7.32;;;;;;;-139.48;100.00;61774.03;5077245;28;20139;-64
2021/08/22 00:07:12;;;;;;;18.13;6.95;;;;;;;-139.48;100.00;61774.03;5091499;28;20051;-64
2021/08/22 00:09:56;;;;;;;17.92;7.28;;;;;;;-139.48;100.00;61774.03;5091443;28;20135;-64
2021/08/22 00:12:40;;;;;;;17.95;7.88;;;;;;;-139.48;100.00;61774.03;5092448;28;20051;-67
2021/08/22 00:15:25;;;;;;;17.65;7.70;;;;;;;-139.48;100.00;61774.03;5092542;28;20162;-63
2021/08/22 00:18:09;;;;;;;15.57;7.93;;;;;;;-139.48;100.00;61774.03;5092397;28;20043;-64
2021/08/22 00:20:53;;;;;;;20.20;7.68;;;;;;;-139.48;100.00;61774.03;5092425;28;20121;-65
2021/08/22 00:23:37;;;;;;;16.10;7.97;;;;;;;-139.48;100.00;61774.03;5092440;28;20051;-64
2021/08/22 00:26:20;;;;;;;24.20;9.35;;;;;;;-139.48;100.00;61774.03;5092161;28;20050;-65
2021/08/22 00:29:04;;;;;;;14.23;7.78;;;;;;;-139.48;100.00;61774.03;5093046;28;20046;-58
2021/08/22 00:31:49;;;;;;;28.83;10.32;;;;;;;-139.48;100.00;61774.03;5092310;28;20054;-61
2021/08/22 00:34:33;;;;;;;11.25;6.03;;;;;;;-139.48;100.00;61774.03;5092382;28;20055;-61
2021/08/22 00:37:17;;;;;;;8.27;5.15;;;;;;;-139.48;100.00;61774.03;5092151;28;20458;-61
2021/08/22 00:40:00;;;;;;;6.93;4.68;;;;;;;-139.48;100.00;61774.03;5092191;28;20046;-61
2021/08/22 00:42:48;;;;;;;9.77;4.88;;;;;;;-139.48;100.00;61774.03;5095488;28;20454;-61
2021/08/22 00:45:32;;;;;;;16.10;5.75;;;;;;;-139.48;100.00;61774.03;5094716;28;20393;-61
2021/08/22 00:48:16;;;;;;;10.27;4.95;;;;;;;-139.48;100.00;61774.03;5094985;28;20439;-61
2021/08/22 00:51:00;;;;;;;10.20;5.30;;;;;;;-139.48;100.00;61774.03;5094760;28;20557;-61
2021/08/22 00:53:44;;;;;;;8.88;5.32;;;;;;;-139.48;100.00;61774.03;5095789;28;20158;-61
2021/08/22 00:56:30;;;;;;;11.90;5.68;;;;;;;-139.48;100.00;61774.03;5095421;28;20097;-61
2021/08/22 00:59:16;;;;;;;7.20;4.63;;;;;;;-139.48;100.00;61774.03;5094347;28;20070;-61
2021/08/22 01:02:01;;;;;;;8.77;4.75;;;;;;;-139.48;100.00;61774.03;5094534;28;20046;-61
2021/08/22 01:04:51;;;;;;;7.50;4.53;;;;;;;-139.48;100.00;61774.03;5094536;28;20094;-62
2021/08/22 01:07:41;;;;;;;8.02;4.68;;;;;;;-139.48;100.00;61774.03;5094264;28;20136;-62
2021/08/22 01:10:26;;;;;;;10.15;4.57;;;;;;;-139.48;100.00;61774.03;5094117;28;20057;-62
2021/08/22 01:13:11;;;;;;;14.45;5.90;;;;;;;-139.48;100.00;61774.03;5094304;28;20522;-62
2021/08/22 01:15:57;;;;;;;10.23;5.15;;;;;;;-139.48;100.00;61774.03;5080027;28;20151;-62
2021/08/22 01:18:42;;;;;;;9.30;4.45;;;;;;;-139.48;100.00;61774.03;5080305;28;20074;-62
2021/08/22 01:21:26;;;;;;;6.45;4.40;;;;;;;-139.48;100.00;61774.03;5079961;28;20523;-61
2021/08/22 01:24:11;;;;;;;6.53;4.78;;;;;;;-139.48;100.00;61774.03;5094193;28;20112;-62
2021/08/22 01:26:57;;;;;;;6.32;5.05;;;;;;;-139.48;100.00;61774.03;5093882;28;20043;-62
2021/08/22 01:29:56;;;;;;;6.70;4.10;;;;;;;-139.48;100.00;61774.03;5079660;28;20427;-62
2021/08/22 01:32:42;;;;;;;7.40;4.82;;;;;;;-139.48;100.00;61774.03;5093790;28;20082;-62
2021/08/22 01:35:26;;;;;;;9.18;4.53;;;;;;;-139.48;100.00;61774.03;5093900;28;20100;-62
2021/08/22 01:38:10;;;;;;;8.55;4.45;;;;;;;-139.48;100.00;61774.03;5093614;28;20055;-62
2021/08/22 01:40:54;;;;;;;8.55;4.03;;;;;;;-139.48;100.00;61774.03;5093798;28;20403;-62
2021/08/22 01:43:39;;;;;;;9.00;4.15;;;;;;;-139.48;100.00;61774.03;5094793;28;20451;-62
2021/08/22 01:46:31;;;;;;;5.47;3.92;;;;;;;-139.48;100.00;61774.03;5093384;28;20054;-62
2021/08/22 01:49:15;;;;;;;8.90;3.85;;;;;;;-139.48;100.00;61774.03;5093459;28;20047;-62
2021/08/22 01:52:00;;;;;;;8.63;4.20;;;;;;;-139.48;100.00;61774.03;5093569;28;20600;-61
2021/08/22 01:54:45;;;;;;;7.00;4.25;;;;;;;-139.48;100.00;61774.03;5093889;28;20504;-62
2021/08/22 01:57:28;;;;;;;6.13;3.65;;;;;;;-139.48;100.00;61774.03;5093248;28;20047;-62
2021/08/22 02:00:13;;;;;;;9.75;4.35;;;;;;;-139.48;100.00;61774.03;5094564;28;20158;-61
2021/08/22 02:03:04;;;;;;;8.52;3.88;;;;;;;-139.48;100.00;61774.03;5093414;28;20094;-63
2021/08/22 02:05:52;;;;;;;5.78;3.63;;;;;;;-139.48;100.00;61774.03;5093323;28;20464;-62
2021/08/22 02:08:36;;;;;;;7.78;3.80;;;;;;;-139.48;100.00;61774.03;5093303;28;20047;-62
2021/08/22 02:11:24;;;;;;;6.45;4.07;;;;;;;-139.48;100.00;61774.03;5093190;28;20047;-63
2021/08/22 02:14:09;;;;;;;11.63;5.03;;;;;;;-139.48;100.00;61774.03;5078665;28;20050;-62
2021/08/22 02:16:55;;;;;;;9.88;4.95;;;;;;;-139.48;100.00;61774.03;5093255;28;20047;-63
2021/08/22 02:19:39;;;;;;;9.57;4.57;;;;;;;-139.48;100.00;61774.03;5093893;28;20051;-61
2021/08/22 02:22:24;;;;;;;9.75;4.93;;;;;;;-139.48;100.00;61774.03;5092830;28;20051;-62
2021/08/22 02:25:09;;;;;;;7.50;4.53;;;;;;;-139.48;100.00;61774.03;5093011;28;20066;-62
2021/08/22 02:27:55;;;;;;;10.73;5.30;;;;;;;-139.48;100.00;61774.03;5092498;28;20101;-60
2021/08/22 02:30:39;;;;;;;14.80;6.25;;;;;;;-139.48;100.00;61774.03;5093621;28;20043;-62
2021/08/22 02:33:23;;;;;;;7.13;4.90;;;;;;;-139.48;100.00;61774.03;5093867;28;20092;-62
2021/08/22 02:36:07;;;;;;;8.75;4.47;;;;;;;-139.48;100.00;61774.03;5092513;28;20108;-62
2021/08/22 02:38:50;;;;;;;9.27;5.50;;;;;;;-139.48;100.00;61774.03;5093787;28;20415;-62
2021/08/22 02:41:34;;;;;;;9.18;5.00;;;;;;;-139.48;100.00;61774.03;5093716;28;20051;-63
2021/08/22 02:44:18;;;;;;;12.93;5.45;;;;;;;-139.48;100.00;61774.03;5092442;28;20467;-62
2021/08/22 02:47:02;;;;;;;12.82;4.60;;;;;;;-139.48;100.00;61774.03;5092739;28;20104;-62
2021/08/22 02:49:46;;;;;;;7.18;4.72;;;;;;;-139.48;100.00;61774.03;5093286;28;20168;-62
2021/08/22 02:52:30;;;;;;;8.75;5.00;;;;;;;-139.48;100.00;61774.03;5078198;28;20078;-62
2021/08/22 02:55:14;;;;;;;10.95;5.20;;;;;;;-139.48;100.00;61774.03;5093449;28;20097;-62
2021/08/22 02:57:58;;;;;;;13.63;5.25;;;;;;;-139.48;100.00;61774.03;5077813;28;20515;-62
2021/08/22 03:00:42;;;;;;;10.82;5.30;;;;;;;-139.48;100.00;61774.03;5093387;28;20494;-62
2021/08/22 03:03:26;;;;;;;10.65;5.20;;;;;;;-139.48;100.00;61774.03;5078017;28;20109;-62
2021/08/22 03:06:10;;;;;;;9.70;4.70;;;;;;;-139.48;100.00;61774.03;5076856;28;20446;-62
2021/08/22 03:08:54;;;;;;;7.13;4.60;;;;;;;-139.48;100.00;61774.03;5093257;28;20048;-62
2021/08/22 03:11:38;;;;;;;11.68;5.18;;;;;;;-139.48;100.00;61774.03;5092968;28;20101;-62
2021/08/22 03:14:22;;;;;;;7.70;5.28;;;;;;;-139.48;100.00;61774.03;5077780;28;20051;-62
2021/08/22 03:17:07;;;;;;;15.20;6.47;;;;;;;-139.48;100.00;61774.03;5091769;28;20052;-62
2021/08/22 03:19:52;;;;;;;12.35;6.53;;;;;;;-139.48;100.00;61774.03;5092825;28;20047;-62
2021/08/22 03:22:35;;;;;;;11.55;5.82;;;;;;;-139.48;100.00;61774.03;5092049;28;20054;-62
2021/08/22 03:25:20;;;;;;;16.00;8.75;;;;;;;-139.48;100.00;61774.03;5093006;28;20135;-62
2021/08/22 03:28:04;;;;;;;9.73;5.80;;;;;;;-139.48;100.00;61774.03;5092754;28;20050;-62
2021/08/22 03:30:51;;;;;;;9.75;5.80;;;;;;;-139.48;100.00;61774.03;5092838;28;20055;-61
2021/08/22 03:33:36;;;;;;;8.00;5.57;;;;;;;-139.48;100.00;61774.03;5092543;28;20428;-62
2021/08/22 03:36:20;;;;;;;11.13;5.22;;;;;;;-139.48;100.00;61774.03;5092886;28;20058;-62
2021/08/22 03:39:05;;;;;;;11.20;6.00;;;;;;;-139.48;100.00;61774.03;5077817;28;20423;-62
2021/08/22 03:41:49;;;;;;;18.73;7.05;;;;;;;-139.48;100.00;61774.03;5092742;28;20039;-63
2021/08/22 03:44:33;;;;;;;13.27;6.13;;;;;;;-139.48;100.00;61774.03;5092857;28;20527;-63
2021/08/22 03:47:17;;;;;;;9.43;6.10;;;;;;;-139.48;100.00;61774.03;5091590;28;20566;-62
2021/08/22 03:50:01;;;;;;;9.55;6.32;;;;;;;-139.48;100.00;61774.03;5077436;28;20099;-62
2021/08/22 03:52:51;;;;;;;10.85;5.75;;;;;;;-139.48;100.00;61774.03;5091753;28;20074;-62
2021/08/22 03:55:35;;;;;;;12.40;6.82;;;;;;;-139.48;100.00;61774.03;5092820;28;20059;-63
2021/08/22 03:58:19;;;;;;;13.95;7.95;;;;;;;-139.48;100.00;61774.03;5092459;28;20066;-63
2021/08/22 04:01:03;;;;;;;16.25;7.18;;;;;;;-139.48;100.00;61774.03;5091677;28;20047;-62
2021/08/22 04:03:47;;;;;;;10.20;5.90;;;;;;;-139.48;100.00;61774.03;5092684;28;20184;-62
2021/08/22 04:06:31;;;;;;;17.08;7.15;;;;;;;-139.48;100.00;61774.03;5091740;28;20114;-62
2021/08/22 04:09:17;;;;;;;9.00;6.38;;;;;;;-139.48;100.00;61774.03;5092607;28;20051;-63
2021/08/22 04:12:01;;;;;;;13.55;7.53;;;;;;;-139.48;100.00;61774.03;5077290;28;20496;-62
2021/08/22 04:14:45;;;;;;;15.98;8.27;;;;;;;-139.48;100.00;61774.03;5077322;28;20046;-63
2021/08/22 04:17:29;;;;;;;16.17;7.65;;;;;;;-139.48;100.00;61774.03;5095050;28;20046;-63
2021/08/22 04:20:13;;;;;;;11.23;6.38;;;;;;;-139.48;100.00;61774.03;5096558;28;20062;-61
2021/08/22 04:22:57;;;;;;;16.40;6.65;;;;;;;-139.48;100.00;61774.03;5096266;28;20123;-62
2021/08/22 04:25:42;;;;;;;11.50;6.70;;;;;;;-139.48;100.00;61774.03;5096320;28;20051;-63
2021/08/22 04:28:26;;;;;;;11.35;6.60;;;;;;;-139.48;100.00;61774.03;5096006;28;20051;-63
2021/08/22 04:31:10;;;;;;;13.60;6.47;;;;;;;-139.48;100.00;61774.03;5096018;28;20090;-62
2021/08/22 04:33:54;;;;;;;14.35;7.05;;;;;;;-139.48;100.00;61774.03;5095094;28;20095;-63
2021/08/22 04:36:38;;;;;;;10.55;7.03;;;;;;;-139.48;100.00;61774.03;5096129;28;20047;-63
2021/08/22 04:39:22;;;;;;;21.25;8.88;;;;;;;-139.48;100.00;61774.03;5096472;28;20272;-63
2021/08/22 04:42:06;;;;;;;12.45;7.20;;;;;;;-139.48;100.00;61774.03;5095854;28;20066;-63
2021/08/22 04:44:49;;;;;;;15.65;8.98;;;;;;;-139.48;100.00;61774.03;5096092;28;20043;-63
2021/08/22 04:47:33;;;;;;;14.32;8.20;;;;;;;-139.48;100.00;61774.03;5095687;28;20066;-63
2021/08/22 04:50:17;;;;;;;17.80;8.52;;;;;;;-139.48;100.00;61774.03;5095852;28;20131;-63
2021/08/22 04:53:01;;;;;;;18.83;9.20;;;;;;;-139.48;100.00;61774.03;5094573;28;20077;-63
2021/08/22 04:55:45;;;;;;;14.48;7.82;;;;;;;-139.48;100.00;61774.03;5080245;28;20063;-63
2021/08/22 04:58:29;;;;;;;13.48;7.85;;;;;;;-139.48;100.00;61774.03;5095713;28;20047;-61
2021/08/22 05:01:13;;;;;;;17.88;8.45;;;;;;;-139.48;100.00;61774.03;5095464;28;20093;-62
2021/08/22 05:03:57;;;;;;;15.98;8.75;;;;;;;-139.48;100.00;61774.03;5095460;28;20051;-63
2021/08/22 05:06:41;;;;;;;14.05;7.13;;;;;;;-139.48;100.00;61774.03;5094460;28;20055;-63
2021/08/22 05:09:25;;;;;;;13.60;8.02;;;;;;;-139.48;100.00;61774.03;5095548;28;20412;-63
2021/08/22 05:12:09;;;;;;;14.55;7.68;;;;;;;-139.48;100.00;61774.03;5094297;28;20070;-63
2021/08/22 05:14:52;;;;;;;21.35;9.75;;;;;;;-139.48;100.00;61774.03;5094429;28;20112;-62
2021/08/22 05:17:36;;;;;;;13.95;7.63;;;;;;;-139.48;100.00;61774.03;5095135;28;20524;-63
2021/08/22 05:20:20;;;;;;;14.98;8.70;;;;;;;-139.48;100.00;61774.03;5094004;28;20150;-63
2021/08/22 05:23:05;;;;;;;15.40;8.82;;;;;;;-139.48;100.00;61774.03;5094269;28;20138;-63
2021/08/22 05:25:48;;;;;;;19.52;9.80;;;;;;;-139.48;100.00;61774.03;5094151;28;20140;-63
2021/08/22 05:28:32;;;;;;;19.85;10.48;;;;;;;-139.48;100.00;61774.03;5092642;28;20050;-62
2021/08/22 05:31:16;;;;;;;24.65;11.25;;;;;;;-139.48;100.00;61774.03;5094836;28;20531;-63
2021/08/22 05:34:00;;;;;;;19.05;10.90;;;;;;;-139.48;100.00;61774.03;5095113;28;20180;-63
2021/08/22 05:36:44;;;;;;;18.33;11.02;;;;;;;-139.48;100.00;61774.03;5094885;28;20112;-62
2021/08/22 05:39:28;;;;;;;26.48;10.63;;;;;;;-139.48;100.00;61774.03;5094922;28;20055;-63
2021/08/22 05:42:12;;;;;;;26.48;10.80;;;;;;;-139.48;100.00;61774.03;5094873;28;20043;-62
2021/08/22 05:44:56;;;;;;;21.88;10.52;;;;;;;-139.48;100.00;61774.03;5093550;28;20047;-62
2021/08/22 05:47:40;;;;;;;17.45;8.02;;;;;;;-139.48;100.00;61774.03;5107963;28;20527;-63
2021/08/22 05:50:24;;;;;;;15.07;9.40;;;;;;;-139.48;100.00;61774.03;5093679;28;20591;-63
2021/08/22 05:53:08;;;;;;;17.02;8.63;;;;;;;-139.48;100.00;61774.03;5094706;28;20137;-61
2021/08/22 05:55:52;;;;;;;11.07;7.65;;;;;;;-139.48;100.00;61774.03;5094576;28;20047;-63
2021/08/22 05:58:37;;;;;;;14.63;8.13;;;;;;;-139.48;100.00;61774.03;5094582;28;20408;-62
2021/08/22 06:01:21;;;;;;;13.85;8.98;;;;;;;-139.48;100.00;61774.03;5094521;28;20047;-63
2021/08/22 06:04:04;;;;;;;14.05;8.05;;;;;;;-139.48;100.00;61774.03;5093472;28;20165;-62
2021/08/22 06:06:48;;;;;;;15.85;8.18;;;;;;;-139.48;100.00;61774.03;5093558;28;20043;-62
2021/08/22 06:09:32;;;;;;;13.95;8.45;;;;;;;-139.48;100.00;61774.03;5093082;28;20050;-63
2021/08/22 06:12:17;;;;;;;10.57;7.88;;;;;;;-139.48;100.00;61774.03;5093085;28;20225;-62
2021/08/22 06:15:02;;;;;;;15.10;8.25;;;;;;;-139.48;100.00;61774.03;5092983;28;20451;-62
2021/08/22 06:17:46;;;;;;;13.70;7.28;;;;;;;-139.48;100.00;61774.03;5094233;28;20138;-63
2021/08/22 06:20:30;;;;;;;12.82;7.43;;;;;;;-139.48;100.00;61774.03;5094465;28;20055;-62
2021/08/22 06:23:14;;;;;;;12.98;7.00;;;;;;;-139.48;100.00;61774.03;5094113;28;20100;-62
2021/08/22 06:25:58;;;;;;;10.65;7.57;;;;;;;-139.48;100.00;61774.03;5093953;28;20047;-62
2021/08/22 06:28:42;;;;;;;;;;;;;;;-139.48;100.00;61774.03;5095193;28;20469;-65
2021/08/22 06:31:26;;;;;;;10.97;7.63;;;;;;;-139.48;100.00;61774.03;5092925;28;19962;-64
2021/08/22 06:34:10;;;;;;;15.65;7.72;;;;;;;-139.48;100.00;61774.03;5092713;28;20389;-65
2021/08/22 06:36:53;;;;;;;12.23;7.35;;;;;;;-139.48;100.00;61774.03;5093807;28;20074;-65
2021/08/22 06:39:41;;;;;;;13.55;7.45;;;;;;;-139.48;100.00;61774.03;5092426;28;20554;-63
2021/08/22 06:42:27;;;;;;;11.35;8.60;;;;;;;-139.48;100.00;61774.03;5094038;28;20062;-65
2021/08/22 06:45:11;;;;;;;11.88;7.95;;;;;;;-139.48;100.00;61774.03;5092644;28;20547;-65
2021/08/22 06:47:55;;;;;;;15.98;7.93;;;;;;;-139.48;100.00;61774.03;5092533;28;20512;-64
2021/08/22 06:50:42;;;;;;;10.65;7.57;;;;;;;-139.48;100.00;61774.03;5093551;28;20043;-65
2021/08/22 06:53:26;;;;;;;13.52;7.55;;;;;;;-139.48;100.00;61774.03;5092272;28;20051;-65
2021/08/22 06:56:10;;;;;;;14.02;7.90;;;;;;;-139.48;100.00;61774.03;5093542;28;20096;-65
2021/08/22 06:58:53;;;;;;;;;;;;;;;-139.48;100.00;61774.03;5093680;28;20047;-65
2021/08/22 07:01:37;;;;;;;14.00;7.78;;;;;;;-139.48;100.00;61774.03;5093434;28;19919;-65
2021/08/22 07:04:21;;;;;;;14.45;7.90;;;;;;;-139.48;100.00;61774.03;5092819;28;20055;-64
2021/08/22 07:07:05;;;;;;;10.93;7.60;;;;;;;-139.48;100.00;61774.03;5093105;28;20050;-64
2021/08/22 07:09:49;;;;;;;11.20;7.57;;;;;;;-139.48;100.00;61774.03;5077882;28;20070;-65
2021/08/22 07:12:33;;;;;;;11.73;7.30;;;;;;;-139.48;100.00;61774.03;5093288;28;20503;-63
2021/08/22 07:15:17;;;;;;;23.55;7.72;;;;;;;-139.48;100.00;61774.03;5092981;28;20071;-64
2021/08/22 07:18:01;;;;;;;9.30;7.45;;;;;;;-139.48;100.00;61774.03;5092019;28;20090;-64
2021/08/22 07:20:45;;;;;;;;;;;;;;;-139.48;100.00;61774.03;5078223;28;20127;-65
2021/08/22 07:23:29;;;;;;;11.45;7.22;;;;;;;-139.48;100.00;61774.03;5092140;28;19957;-64
2021/08/22 07:26:13;;;;;;;10.27;7.10;;;;;;;-139.48;100.00;61774.03;5092689;28;20047;-64
2021/08/22 07:28:56;;;;;;;12.48;7.68;;;;;;;-139.48;100.00;61774.03;5093083;28;20409;-64
2021/08/22 07:31:40;;;;;;;14.35;7.68;;;;;;;-139.48;100.00;61774.03;5091878;28;20596;-64
2021/08/22 07:34:24;;;;;;;10.90;7.57;;;;;;;-139.48;100.00;61774.03;5092955;28;20158;-64
2021/08/22 07:37:08;;;;;;;10.38;7.78;;;;;;;-139.48;100.00;61774.03;5092607;28;20508;-64
2021/08/22 07:39:52;;;;;;;12.98;7.40;;;;;;;-139.48;100.00;61774.03;5091812;28;20062;-64
2021/08/22 07:42:37;;;;;;;9.90;7.20;;;;;;;-139.48;100.00;61774.03;5092714;28;20109;-64
2021/08/22 07:45:21;;;;;;;9.43;7.00;;;;;;;-139.48;100.00;61774.03;5077949;28;20570;-65
2021/08/22 07:48:05;;;;;;;;;;;;;;;-139.48;100.00;61774.03;5092963;28;20142;-64
2021/08/22 07:50:49;;;;;;;10.93;7.53;;;;;;;-139.48;100.00;61774.03;5092705;28;19978;-63
2021/08/22 07:53:35;;;;;;;11.55;7.18;;;;;;;-139.48;100.00;61774.03;5096983;28;20256;-65
2021/08/22 07:56:19;;;;;;;12.52;7.53;;;;;;;-139.48;100.00;61774.03;5096642;28;20515;-65
2021/08/22 07:59:03;;;;;;;9.82;7.78;;;;;;;-139.48;100.00;61774.03;5095725;28;20101;-63
2021/08/22 08:01:47;;;;;;;9.45;7.43;;;;;;;-139.48;100.00;61774.03;5097113;28;20043;-65
2021/08/22 08:04:31;;;;;;;9.77;7.28;;;;;;;-139.48;100.00;61774.03;5096583;28;20136;-65
2021/08/22 08:07:15;;;;;;;8.35;7.07;;;;;;;-139.48;100.00;61774.03;5095486;28;20140;-65
2021/08/22 08:09:59;;;;;;;13.25;7.00;;;;;;;-139.48;100.00;61774.03;5096651;28;20077;-65
2021/08/22 08:12:43;;;;;;;9.25;6.65;;;;;;;-139.48;100.00;61774.03;5095361;28;20097;-65
2021/08/22 08:15:28;;;;;;;10.85;6.72;;;;;;;-139.48;100.00;61774.03;5095564;28;20083;-64
2021/08/22 08:18:11;;;;;;;10.60;6.80;;;;;;;-139.48;100.00;61774.03;5095073;28;20097;-65
2021/08/22 08:20:56;;;;;;;;;;;;;;;-139.48;100.00;61774.03;5095898;28;20546;-65
2021/08/22 08:23:40;;;;;;;7.63;6.82;;;;;;;-139.48;100.00;61774.03;5096236;28;19919;-65
2021/08/22 08:26:24;;;;;;;;;;;;;;;-139.48;100.00;61774.03;5095355;28;20101;-65
2021/08/22 08:29:08;;;;;;;7.88;6.03;;;;;;;-139.48;100.00;61774.03;5096391;28;19919;-65
2021/08/22 08:31:52;;;;;;;7.43;6.53;;;;;;;-139.48;100.00;61774.03;5095912;28;20558;-65
2021/08/22 08:34:36;;;;;;;9.30;6.70;;;;;;;-139.48;100.00;61774.03;5096509;28;20051;-65
2021/08/22 08:37:20;;;;;;;9.50;6.25;;;;;;;-139.48;100.00;61774.03;5096085;28;20047;-64
2021/08/22 08:40:06;;;;;;;9.73;6.78;;;;;;;-139.48;100.00;61774.03;5096152;28;20067;-65
2021/08/22 08:43:00;;;;;;;7.80;6.68;;;;;;;-139.48;100.00;61774.03;5094854;28;20220;-65
2021/08/22 08:46:15;;;;;;;11.32;6.80;;;;;;;-139.48;100.00;61774.03;5094799;28;20073;-65
2021/08/22 08:49:10;;;;;;;8.50;6.60;;;;;;;-139.48;100.00;61774.03;5095664;28;20043;-64
2021/08/22 08:52:04;;;;;;;6.95;6.18;;;;;;;-139.48;100.00;61774.03;5096044;28;20433;-65
2021/08/22 08:54:49;;;;;;;9.20;6.82;;;;;;;-139.48;100.00;61774.03;5095669;28;20059;-65
2021/08/22 08:57:34;;;;;;;7.65;6.70;;;;;;;-139.48;100.00;61774.03;5095387;28;20051;-64
2021/08/22 09:00:18;;;;;;;10.70;8.10;;;;;;;-139.48;100.00;61774.03;5095301;28;20058;-64
2021/08/22 09:03:06;;;;;;;10.05;7.55;;;;;;;-139.48;100.00;61774.03;5094225;28;20086;-64
2021/08/22 09:06:20;;;;;;;13.98;8.23;;;;;;;-139.48;100.00;61774.03;5094138;28;20054;-64
2021/08/22 09:09:13;;;;;;;13.02;8.07;;;;;;;-139.48;100.00;61774.03;5095469;28;20082;-62
2021/08/22 09:12:26;;;;;;;15.38;9.18;;;;;;;-139.48;100.00;61774.03;5095282;28;20511;-62
2021/08/22 09:15:28;;;;;;;12.93;9.35;;;;;;;-139.48;100.00;61774.03;5095708;28;20042;-64
2021/08/22 09:18:57;;;;;;;14.40;10.25;;;;;;;-139.48;100.00;61774.03;5094047;28;20062;-64
2021/08/22 09:22:20;;;;;;;12.80;9.38;;;;;;;-139.48;100.00;61774.03;5086964;28;20456;-63
2021/08/22 09:25:29;;;;;;;17.08;9.77;;;;;;;-139.48;100.00;61774.03;5095251;28;20051;-64
2021/08/22 09:29:07;;;;;;;11.68;9.57;;;;;;;-139.48;100.00;61774.03;5094678;28;20046;-64
2021/08/22 09:32:15;;;;;;;13.50;10.23;;;;;;;-139.48;100.00;61774.03;5039999;28;20071;-64
2021/08/22 09:35:14;;;;;;;10.70;7.25;;;;;;;-139.48;100.00;61774.03;5094790;28;20043;-64
2021/08/22 09:38:20;;;;;;;10.85;6.78;;;;;;;-139.48;100.00;61774.03;5095269;28;20097;-63
2021/08/22 09:41:26;;;;;;;11.10;5.25;;;;;;;-139.48;100.00;61774.03;5095242;28;20131;-63
2021/08/22 09:44:49;;;;;;;8.10;5.72;;;;;;;-139.48;100.00;61774.03;5093827;28;20208;-63
2021/08/22 09:47:46;;;;;;;7.68;5.15;;;;;;;-139.48;100.00;61774.03;5095055;28;20047;-64
2021/08/22 09:50:52;;;;;;;6.60;5.05;;;;;;;-139.48;100.00;61774.03;5094606;28;20042;-63
2021/08/22 09:53:39;;;;;;;6.80;5.10;;;;;;;-139.48;100.00;61774.03;5094746;28;20047;-63
2021/08/22 09:56:32;;;;;;;7.78;5.57;;;;;;;-139.48;100.00;61774.03;5094382;28;20051;-64
2021/08/22 09:59:41;;;;;;;11.48;4.20;;;;;;;-139.48;100.00;61774.03;5094610;28;20051;-64
2021/08/22 10:02:50;;;;;;;4.90;4.40;;;;;;;-139.48;100.00;61774.03;5094505;28;20038;-64
2021/08/22 10:05:49;;;;;;;6.25;4.50;;;;;;;-139.48;100.00;61774.03;5094602;28;20165;-64
2021/08/22 10:08:36;;;;;;;5.35;4.07;;;;;;;-139.48;100.00;61774.03;5094129;28;20079;-64
2021/08/22 10:11:44;;;;;;;4.60;3.88;;;;;;;-139.48;100.00;61774.03;5093065;28;20113;-64
2021/08/22 10:14:29;;;;;;;11.45;4.35;;;;;;;-139.48;100.00;61774.03;5091814;28;20054;-64
2021/08/22 10:17:25;;;;;;;5.90;4.45;;;;;;;-139.48;100.00;61774.03;5093279;28;20078;-64
2021/08/22 10:20:10;;;;;;;6.30;4.68;;;;;;;-139.48;100.00;61774.03;5093631;28;20134;-64
2021/08/22 10:22:57;;;;;;;5.50;4.93;;;;;;;-139.48;100.00;61774.03;5094065;28;20145;-65
2021/08/22 10:25:49;;;;;;;5.25;4.30;;;;;;;-139.48;100.00;61774.03;5093851;28;20050;-64
2021/08/22 10:28:45;;;;;;;6.20;4.18;;;;;;;-139.48;100.00;61774.03;5092519;28;20047;-64
2021/08/22 10:31:59;;;;;;;6.75;4.63;;;;;;;-139.48;100.00;61774.03;5093923;28;20055;-64
2021/08/22 10:34:45;;;;;;;6.65;4.40;;;;;;;-139.48;100.00;61774.03;5093912;28;20154;-64
2021/08/22 10:37:31;;;;;;;5.50;4.20;;;;;;;-139.48;100.00;61774.03;5093653;28;20066;-64
2021/08/22 10:40:21;;;;;;;5.93;4.43;;;;;;;-139.48;100.00;61774.03;5092671;28;20466;-64
2021/08/22 10:43:05;;;;;;;5.80;4.40;;;;;;;-139.48;100.00;61774.03;5093746;28;20046;-64
2021/08/22 10:45:51;;;;;;;4.68;4.20;;;;;;;-139.48;100.00;61774.03;5093517;28;20447;-64
2021/08/22 10:48:35;;;;;;;5.63;4.78;;;;;;;-139.48;100.00;61774.03;5093453;28;20066;-64
2021/08/22 10:51:19;;;;;;;8.38;4.95;;;;;;;-139.48;100.00;61774.03;5093443;28;20055;-64
2021/08/22 10:54:16;;;;;;;6.20;5.18;;;;;;;-139.48;100.00;61774.03;5092522;28;20047;-64
2021/08/22 10:57:00;;;;;;;8.75;5.65;;;;;;;-139.48;100.00;61774.03;5092353;28;20105;-64
2021/08/22 11:00:18;;;;;;;8.40;5.72;;;;;;;-139.48;100.00;61774.03;5077917;28;20063;-64
2021/08/22 11:03:21;;;;;;;8.07;6.07;;;;;;;-139.48;100.00;61774.03;5093412;28;20119;-64
2021/08/22 11:06:04;;;;;;;7.03;6.30;;;;;;;-139.48;100.00;61774.03;5093326;28;20117;-63
2021/08/22 11:08:48;;;;;;;8.65;6.43;;;;;;;-139.48;100.00;61774.03;5092434;28;20153;-64
2021/08/22 11:11:32;;;;;;;7.63;6.32;;;;;;;-139.48;100.00;61774.03;5093295;28;20047;-64
2021/08/22 11:14:16;;;;;;;7.05;6.00;;;;;;;-139.48;100.00;61774.03;5093174;28;20070;-64
2021/08/22 11:17:00;;;;;;;9.55;7.38;;;;;;;-139.48;100.00;61774.03;5092903;28;20051;-64
2021/08/22 11:19:44;;;;;;;8.63;6.90;;;;;;;-139.48;100.00;61774.03;5093135;28;20085;-64
2021/08/22 11:22:29;;;;;;;9.07;7.22;;;;;;;-139.48;100.00;61774.03;5092089;28;20085;-64
2021/08/22 11:25:13;;;;;;;10.55;8.10;;;;;;;-139.48;100.00;61774.03;5092897;28;20432;-64
2021/08/22 11:28:11;;;;;;;10.07;7.82;;;;;;;-139.48;100.00;61774.03;5091314;28;20047;-63
2021/08/22 11:30:55;;;;;;;10.13;7.80;;;;;;;-139.48;100.00;61774.03;5092792;28;20051;-64
2021/08/22 11:33:39;;;;;;;12.98;8.82;;;;;;;-139.48;100.00;61774.03;5092211;28;20050;-64
2021/08/22 11:36:29;;;;;;;11.75;9.20;;;;;;;-139.48;100.00;61774.03;5092871;28;20132;-64
2021/08/22 11:39:16;;;;;;;11.10;9.30;;;;;;;-139.48;100.00;61774.03;5091618;28;20094;-64
2021/08/22 11:42:00;;;;;;;12.95;10.10;;;;;;;-139.48;100.00;61774.03;5092901;28;20105;-64
2021/08/22 11:44:44;;;;;;;12.02;9.15;;;;;;;-139.48;100.00;61774.03;5106021;28;20527;-64
2021/08/22 11:47:28;;;;;;;13.52;8.98;;;;;;;-139.48;100.00;61774.03;5091721;28;20569;-64
2021/08/22 11:50:13;;;;;;;;;;;;;;;-139.48;100.00;61774.03;5092109;28;20074;-62
2021/08/22 11:52:59;;;;;;;10.60;8.93;;;;;;;-139.48;100.00;61774.03;5091539;28;19918;-63
2021/08/22 11:55:43;;;;;;;12.07;9.57;;;;;;;-139.48;100.00;61774.03;5091396;28;20561;-64
2021/08/22 11:58:33;;;;;;;11.32;8.25;;;;;;;-139.48;100.00;61774.03;5091653;28;20408;-63
2021/08/22 12:01:18;;;;;;;10.95;9.05;;;;;;;-139.48;100.00;61774.03;5092750;28;20043;-64
2021/08/22 12:04:03;;;;;;;11.13;8.98;;;;;;;-139.48;100.00;61774.03;5091661;28;20102;-64
2021/08/22 12:06:46;;;;;;;15.90;10.95;;;;;;;-139.48;100.00;61774.03;5092358;28;20132;-63
2021/08/22 12:09:30;;;;;;;10.93;9.73;;;;;;;-139.48;100.00;61774.03;5091557;28;20104;-64
2021/08/22 12:12:19;;;;;;;11.70;9.20;;;;;;;-139.48;100.00;61774.03;5091528;28;20504;-64
2021/08/22 12:15:08;;;;;;;12.60;9.50;;;;;;;-139.48;100.00;61774.03;5092459;28;20451;-64
2021/08/22 12:18:11;;;;;;;12.63;9.32;;;;;;;-139.48;100.00;61774.03;5091222;28;20067;-64
2021/08/22 12:21:01;;;;;;;9.70;7.78;;;;;;;-139.48;100.00;61774.03;5092776;28;20075;-64
2021/08/22 12:23:47;;;;;;;11.82;10.40;;;;;;;-139.48;100.00;61774.03;5092486;28;20105;-64
2021/08/22 12:26:33;;;;;;;13.60;9.25;;;;;;;-139.48;100.00;61774.03;5105600;28;20047;-64
2021/08/22 12:29:17;;;;;;;14.73;10.40;;;;;;;-139.48;100.00;61774.03;5091472;28;20177;-64
2021/08/22 12:32:18;;;;;;;11.80;8.98;;;;;;;-139.48;100.00;61774.03;5091197;28;20047;-63
2021/08/22 12:35:07;;;;;;;10.73;8.95;;;;;;;-139.48;100.00;61774.03;5092377;28;20443;-64
2021/08/22 12:37:51;;;;;;;12.45;9.95;;;;;;;-139.48;100.00;61774.03;5092858;28;20109;-65